Airfield :
LOGIN :

Register | Disclaimer

   EN    FR    IT 

 










Legend :    VFR   Marginal VFR   IFR   Intensive IFR   Very Intensive IFR
Visi :
Ceiling :
>= 8 km
>= 3000ft
5 to 8 km
1000 to 3000 ft
1500m to 5 km
500 to 1000 ft
800 to 1500m
200 to 500 ft
< 800m
< 200 ft
Symbols :   Thunderstorms  Fog  Heavy snow  Heavy precipitations  Wind > 20 kt
SIGMETs :     Misc.  Thunderstorms  Icing  Turbulence  Mountain Waves  Volcanic Ashes






- Airport Elevation : 46 ft
- IATA code : PAF


LPMT - Montijo Air Base

CURRENT METAR :
  • 220000Z 09002KT CAVOK 13/12 Q1014

EXPIRED METARs :
  • 212300Z 06002KT CAVOK 14/12 Q1014
  • 212200Z VRB01KT CAVOK 14/12 Q1014
  • 212100Z VRB01KT CAVOK 16/13 Q1014
  • 212000Z 36004KT 330V030 CAVOK 18/12 Q1013
  • 211900Z 23005KT 9999 FEW045 21/11 Q1013

TAF TAF LPMT
Valid from the 22 at 00:00 until the 23 at 00:00 UTC


212307Z 2200/2224 VRB02KT CAVOK
PROB30 2205/2208 2000 BR BKN004
BECMG 2209/2211 03007KT
BECMG 2216/2218 33012KT



MET'MAP, your aeronautical weather chart ! - Copyright ORBIFLY December 2007 - Disclaimer

ORBIFLY MET'MAP TEAM :

Programming & Development : Alexandra Zaïnal
Original concept : Baudouin d'Aumeries
Technical & hardware support : Manuel Goepfert
Assistance : Marc-Olivier Méhu




SOURCES & CREDITS :

   NOAA